地図

経路データ

SID SEASON NUMBER BASIN SUBBASIN NAME ISO_TIME NATURE LAT LON WMO_WIND WMO_PRES WMO_AGENCY TRACK_TYPE DIST2LAND LANDFALL IFLAG USA_AGENCY USA_ATCF_ID USA_LAT USA_LON USA_RECORD USA_STATUS USA_WIND USA_PRES USA_SSHS USA_R34_NE USA_R34_SE USA_R34_SW USA_R34_NW USA_R50_NE USA_R50_SE USA_R50_SW USA_R50_NW USA_R64_NE USA_R64_SE USA_R64_SW USA_R64_NW USA_POCI USA_ROCI USA_RMW USA_EYE TOKYO_LAT TOKYO_LON TOKYO_GRADE TOKYO_WIND TOKYO_PRES TOKYO_R50_DIR TOKYO_R50_LONG TOKYO_R50_SHORT TOKYO_R30_DIR TOKYO_R30_LONG TOKYO_R30_SHORT TOKYO_LAND CMA_LAT CMA_LON CMA_CAT CMA_WIND CMA_PRES HKO_LAT HKO_LON HKO_CAT HKO_WIND HKO_PRES NEWDELHI_LAT NEWDELHI_LON NEWDELHI_GRADE NEWDELHI_WIND NEWDELHI_PRES NEWDELHI_CI NEWDELHI_DP NEWDELHI_POCI REUNION_LAT REUNION_LON REUNION_TYPE REUNION_WIND REUNION_PRES REUNION_TNUM REUNION_CI REUNION_RMW REUNION_R34_NE REUNION_R34_SE REUNION_R34_SW REUNION_R34_NW REUNION_R50_NE REUNION_R50_SE REUNION_R50_SW REUNION_R50_NW REUNION_R64_NE REUNION_R64_SE REUNION_R64_SW REUNION_R64_NW BOM_LAT BOM_LON BOM_TYPE BOM_WIND BOM_PRES BOM_TNUM BOM_CI BOM_RMW BOM_R34_NE BOM_R34_SE BOM_R34_SW BOM_R34_NW BOM_R50_NE BOM_R50_SE BOM_R50_SW BOM_R50_NW BOM_R64_NE BOM_R64_SE BOM_R64_SW BOM_R64_NW BOM_ROCI BOM_POCI BOM_EYE BOM_POS_METHOD BOM_PRES_METHOD NADI_LAT NADI_LON NADI_CAT NADI_WIND NADI_PRES WELLINGTON_LAT WELLINGTON_LON WELLINGTON_WIND WELLINGTON_PRES DS824_LAT DS824_LON DS824_STAGE DS824_WIND DS824_PRES TD9636_LAT TD9636_LON TD9636_STAGE TD9636_WIND TD9636_PRES TD9635_LAT TD9635_LON TD9635_WIND TD9635_PRES TD9635_ROCI NEUMANN_LAT NEUMANN_LON NEUMANN_CLASS NEUMANN_WIND NEUMANN_PRES MLC_LAT MLC_LON MLC_CLASS MLC_WIND MLC_PRES USA_GUST BOM_GUST BOM_GUST_PER REUNION_GUST REUNION_GUST_PER USA_SEAHGT USA_SEARAD_NE USA_SEARAD_SE USA_SEARAD_SW USA_SEARAD_NW STORM_SPEED STORM_DIR
1925255N19129 1925 49 WP MM NOT_NAMED 1925-09-12 10:00:00 NR 18.7000 128.600 main 665 633 __________O___ -1 18.7000 128.600 2 7 278
1925255N19129 1925 49 WP MM NOT_NAMED 1925-09-12 12:00:00 NR 18.7359 128.340 main 633 591 __________P___ -1 18.7359 128.340 2 7 278
1925255N19129 1925 49 WP MM NOT_NAMED 1925-09-12 15:00:00 NR 18.7885 127.947 main 591 549 __________P___ -1 18.7885 127.947 2 8 278
1925255N19129 1925 49 WP MM NOT_NAMED 1925-09-12 18:00:00 NR 18.8386 127.548 main 549 508 __________P___ -1 18.8386 127.548 2 8 277
1925255N19129 1925 49 WP MM NOT_NAMED 1925-09-12 21:00:00 NR 18.8854 127.139 main 508 498 __________P___ -1 18.8854 127.139 2 8 277
1925255N19129 1925 49 WP MM NOT_NAMED 1925-09-12 22:00:00 NR 18.9000 127.000 main 498 466 __________O___ -1 18.9000 127.000 3 8 276
1925255N19129 1925 49 WP MM NOT_NAMED 1925-09-13 00:00:00 NR 18.9280 126.717 main 466 426 __________P___ -1 18.9280 126.717 3 8 276
1925255N19129 1925 49 WP MM NOT_NAMED 1925-09-13 03:00:00 NR 18.9700 126.286 main 426 385 __________P___ -1 18.9700 126.286 3 8 276
1925255N19129 1925 49 WP MM NOT_NAMED 1925-09-13 06:00:00 NR 19.0175 125.856 main 385 335 __________P___ -1 19.0175 125.856 3 8 278
1925255N19129 1925 49 WP MM NOT_NAMED 1925-09-13 09:00:00 NR 19.0766 125.436 main 335 325 __________P___ -1 19.0766 125.436 3 8 279
1925255N19129 1925 49 WP MM NOT_NAMED 1925-09-13 10:00:00 NR 19.1000 125.300 main 325 297 __________O___ -1 19.1000 125.300 4 8 281
1925255N19129 1925 49 WP MM NOT_NAMED 1925-09-13 12:00:00 NR 19.1553 125.015 main 297 258 __________P___ -1 19.1553 125.015 4 8 283
1925255N19129 1925 49 WP MM NOT_NAMED 1925-09-13 15:00:00 NR 19.2509 124.600 main 262 223 __________P___ -1 19.2509 124.600 4 8 285
1925255N19129 1925 49 WP MM NOT_NAMED 1925-09-13 18:00:00 NR 19.3560 124.218 main 229 202 __________P___ -1 19.3560 124.218 4 7 288
1925255N19129 1925 49 WP MM NOT_NAMED 1925-09-13 21:00:00 NR 19.4643 123.892 main 208 200 __________P___ -1 19.4643 123.892 4 6 290
1925255N19129 1925 49 WP MM NOT_NAMED 1925-09-13 22:00:00 NR 19.5000 123.800 main 200 191 __________O___ -1 19.5000 123.800 4 5 293
1925255N19129 1925 49 WP MM NOT_NAMED 1925-09-14 00:00:00 NR 19.5637 123.648 main 191 184 __________P___ -1 19.5637 123.648 4 4 298
1925255N19129 1925 49 WP MM NOT_NAMED 1925-09-14 03:00:00 NR 19.6595 123.478 main 192 185 __________P___ -1 19.6595 123.478 4 3 305
1925255N19129 1925 49 WP MM NOT_NAMED 1925-09-14 06:00:00 NR 19.7583 123.351 main 194 188 __________P___ -1 19.7583 123.351 4 3 312
1925255N19129 1925 49 WP MM NOT_NAMED 1925-09-14 09:00:00 NR 19.8632 123.239 main 192 192 __________P___ -1 19.8632 123.239 4 3 315
1925255N19129 1925 49 WP MM NOT_NAMED 1925-09-14 10:00:00 NR 19.9000 123.200 main 192 187 __________O___ -1 19.9000 123.200 4 3 310
1925255N19129 1925 49 WP MM NOT_NAMED 1925-09-14 12:00:00 NR 19.9671 123.103 main 197 193 __________P___ -1 19.9671 123.103 4 3 307
1925255N19129 1925 49 WP MM NOT_NAMED 1925-09-14 15:00:00 NR 20.0738 122.956 main 203 200 __________P___ -1 20.0738 122.956 4 4 309
1925255N19129 1925 49 WP MM NOT_NAMED 1925-09-14 18:00:00 NR 20.1962 122.808 main 208 205 __________P___ -1 20.1962 122.808 4 4 313
1925255N19129 1925 49 WP MM NOT_NAMED 1925-09-14 21:00:00 NR 20.3437 122.653 main 216 225 __________P___ -1 20.3437 122.653 4 4 316
1925255N19129 1925 49 WP MM NOT_NAMED 1925-09-14 22:00:00 NR 20.4000 122.600 main 225 225 __________O___ -1 20.4000 122.600 4 5 318
1925255N19129 1925 49 WP MM NOT_NAMED 1925-09-15 00:00:00 NR 20.5220 122.481 main 228 197 __________P___ -1 20.5220 122.481 4 5 319
1925255N19129 1925 49 WP MM NOT_NAMED 1925-09-15 03:00:00 NR 20.7300 122.297 main 197 159 __________P___ -1 20.7300 122.297 4 6 322
1925255N19129 1925 49 WP MM NOT_NAMED 1925-09-15 06:00:00 NR 20.9626 122.115 main 159 129 __________P___ -1 20.9626 122.115 4 6 326
1925255N19129 1925 49 WP MM NOT_NAMED 1925-09-15 09:00:00 NR 21.2134 121.950 main 129 123 __________P___ -1 21.2134 121.950 4 6 329
1925255N19129 1925 49 WP MM NOT_NAMED 1925-09-15 10:00:00 NR 21.3000 121.900 main 123 108 __________O___ -1 21.3000 121.900 4 5 330
1925255N19129 1925 49 WP MM NOT_NAMED 1925-09-15 12:00:00 NR 21.4352 121.811 main 108 89 __________P___ -1 21.4352 121.811 4 5 332
1925255N19129 1925 49 WP MM NOT_NAMED 1925-09-15 15:00:00 NR 21.6498 121.696 main 89 72 __________P___ -1 21.6498 121.696 4 5 338
1925255N19129 1925 49 WP MM NOT_NAMED 1925-09-15 18:00:00 NR 21.9119 121.601 main 72 61 __________P___ -1 21.9119 121.601 4 6 345
1925255N19129 1925 49 WP MM NOT_NAMED 1925-09-15 21:00:00 NR 22.2589 121.523 main 61 56 __________P___ -1 22.2589 121.523 4 7 349
1925255N19129 1925 49 WP MM NOT_NAMED 1925-09-15 22:00:00 NR 22.4000 121.500 main 56 30 __________O___ -1 22.4000 121.500 4 10 351
1925255N19129 1925 49 WP MM NOT_NAMED 1925-09-16 00:00:00 NR 22.7472 121.443 main 30 0 __________P___ -1 22.7472 121.443 4 12 353
1925255N19129 1925 49 WP MM NOT_NAMED 1925-09-16 03:00:00 NR 23.3566 121.368 main 0 0 __________P___ -1 23.3566 121.368 4 13 355
1925255N19129 1925 49 WP MM NOT_NAMED 1925-09-16 06:00:00 NR 24.0223 121.317 main 0 0 __________P___ -1 24.0223 121.317 4 13 357
1925255N19129 1925 49 WP MM NOT_NAMED 1925-09-16 09:00:00 NR 24.6879 121.298 main 0 0 __________P___ -1 24.6879 121.298 4 13 0
1925255N19129 1925 49 WP MM NOT_NAMED 1925-09-16 10:00:00 NR 24.9000 121.300 main 0 0 __________O___ -1 24.9000 121.300 4 12 0
1925255N19129 1925 49 WP MM NOT_NAMED 1925-09-16 12:00:00 NR 25.3009 121.319 main 15 15 __________P___ -1 25.3009 121.319 4 12 4
1925255N19129 1925 49 WP MM NOT_NAMED 1925-09-16 15:00:00 NR 25.8519 121.378 main 78 78 __________P___ -1 25.8519 121.378 4 11 7
1925255N19129 1925 49 WP MM NOT_NAMED 1925-09-16 18:00:00 NR 26.3592 121.463 main 133 108 __________P___ -1 26.3592 121.463 4 10 10
1925255N19129 1925 49 WP MM NOT_NAMED 1925-09-16 21:00:00 NR 26.8415 121.565 main 117 104 __________P___ -1 26.8415 121.565 4 10 11
1925255N19129 1925 49 WP MM NOT_NAMED 1925-09-16 22:00:00 NR 27.0000 121.600 main 104 __________O___ -1 27.0000 121.600 4 10 14

デジタル台風データ・検索

IBTrACS Databaseについて

本データベースは、米国NOAAが公開する1842年以降の世界の熱帯低気圧のベストトラックデータアーカイブInternational Best Track Archive for Climate Stewardship (IBTrACS)を、ウェブで閲覧しやすい形式に変換したものです。

最終更新日:2021-12-08